Lady Grace — WDF5968 — position and weather

sailwx.info

Track history (hours):
 
Tides and Currents Weather Stations Pressure Air Temp Water Temp Dewpoint Dewpoint Depression Visibility Wind Speed Wind Dir Waves Ship Positions

Lady Grace

Owner: Caldwell, William M, Hunt Valley, MD. More information available from US FCC via Universal Licensing System and Coast Guard Vessel Documentation Center.

Last reported at 2018-Jun-07 05:16 UTC. Time now 2018-Jun-18 01:46 UTC.
Position N 39°17' W 076°36'.
Warning: this ship's position is 10 days out of date.

Length 30 m; draft 2.8 m.

Type: Pleasure craft. MMSI: 367469220.

Date/timePositionNaut miles runAvg speedWind from/ knotsBaromVisibWave heightAir tempDewpointWater temp
2018-Jun-07 05:16N 39°17' W 076°36'0 0.2
2018-Jun-07 05:01N 39°17' W 076°36'4 7.9
2018-Jun-07 04:30N 39°14' W 076°33'612.5
2018-Jun-07 03:59N 39°10' W 076°26'812.8
2018-Jun-07 03:21N 39°02' W 076°23'513.0
2018-Jun-07 03:00N 38°58' W 076°23'612.7
2018-Jun-07 02:31N 38°52' W 076°25'12011.8
2018-Jun-06 16:22N 36°52' W 076°20'3 8.5
2018-Jun-06 16:00N 36°50' W 076°18'3 6.2
2018-Jun-06 15:30N 36°47' W 076°18'1 1.7
2018-Jun-06 15:00N 36°46' W 076°18'4 4.0
2018-Jun-06 14:07N 36°43' W 076°15'0 2.7
2018-Jun-06 13:58N 36°43' W 076°14'105 4.1
2018-Jun-05 12:30N 35°01' W 076°40'4 9.0
2018-Jun-05 12:01N 34°56' W 076°39'5 8.5
2018-Jun-05 11:27N 34°52' W 076°41'3 6.0
2018-Jun-05 11:00N 34°49' W 076°41'4 8.9
2018-Jun-05 10:30N 34°45' W 076°41'2 3.9
2018-Jun-05 10:01N 34°43' W 076°41'1 1.4
2018-Jun-05 09:31N 34°43' W 076°40'0 0.0
2018-Jun-05 09:00N 34°43' W 076°40'0 0.0
2018-Jun-05 08:30N 34°43' W 076°40'0 0.0
2018-Jun-05 08:01N 34°43' W 076°40'0 0.0
2018-Jun-05 07:31N 34°43' W 076°40'0 0.0
2018-Jun-05 07:01N 34°43' W 076°40'0 0.0
2018-Jun-05 06:31N 34°43' W 076°40'0 0.0
2018-Jun-05 06:00N 34°43' W 076°40'0 0.0
2018-Jun-05 05:31N 34°43' W 076°40'0 0.0
2018-Jun-05 05:00N 34°43' W 076°40'0 0.0
2018-Jun-05 04:31N 34°43' W 076°40'0 0.0
2018-Jun-05 04:01N 34°43' W 076°40'0 0.0
2018-Jun-05 03:30N 34°43' W 076°40'0 0.0
2018-Jun-05 03:00N 34°43' W 076°40'0 0.0
2018-Jun-05 02:31N 34°43' W 076°40'0 0.0
2018-Jun-05 02:01N 34°43' W 076°40'0 0.0
2018-Jun-05 01:30N 34°43' W 076°40'0 0.0
2018-Jun-05 01:01N 34°43' W 076°40'0 0.0
2018-Jun-05 00:30N 34°43' W 076°40'0 0.0
2018-Jun-05 00:01N 34°43' W 076°40'0 0.0
2018-Jun-04 23:31N 34°43' W 076°40'0 0.0
2018-Jun-04 23:01N 34°43' W 076°40'0 0.0
2018-Jun-04 22:29N 34°43' W 076°40'0 0.0
2018-Jun-04 21:59N 34°43' W 076°40'0 0.0
2018-Jun-04 21:31N 34°43' W 076°40'0 0.0
2018-Jun-04 21:01N 34°43' W 076°40'0 0.0
2018-Jun-04 20:31N 34°43' W 076°40'1 2.0
2018-Jun-04 20:01N 34°42' W 076°41'4 9.0
2018-Jun-04 19:31N 34°38' W 076°43'52413.1
2018-Jun-03 03:23N 26°19' W 079°47'615.4
2018-Jun-03 03:00N 26°13' W 079°48'815.5
2018-Jun-03 02:30N 26°05' W 079°50'815.6
2018-Jun-03 02:00N 25°57' W 079°51'815.8
2018-Jun-03 01:30N 25°50' W 079°52'815.7
2018-Jun-03 01:00N 25°42' W 079°53'  
Track history (hours):
 
Tides and Currents Weather Stations Pressure Air Temp Water Temp Dewpoint Dewpoint Depression Visibility Wind Speed Wind Dir Waves Ship Positions

Lady Grace

Owner: Caldwell, William M, Hunt Valley, MD. More information available from US FCC via Universal Licensing System and Coast Guard Vessel Documentation Center.

Last reported at 2018-Jun-07 05:16 UTC. Time now 2018-Jun-18 01:46 UTC.
Position N 39°17' W 076°36'.
Warning: this ship's position is 10 days out of date.

Length 30 m; draft 2.8 m.

Type: Pleasure craft. MMSI: 367469220.

Date/timePositionNaut miles runAvg speedWind from/ knotsBaromVisibWave heightAir tempDewpointWater temp
2018-Jun-07 05:16N 39°17' W 076°36'0 0.2
2018-Jun-07 05:01N 39°17' W 076°36'4 7.9
2018-Jun-07 04:30N 39°14' W 076°33'612.5
2018-Jun-07 03:59N 39°10' W 076°26'812.8
2018-Jun-07 03:21N 39°02' W 076°23'513.0
2018-Jun-07 03:00N 38°58' W 076°23'612.7
2018-Jun-07 02:31N 38°52' W 076°25'12011.8
2018-Jun-06 16:22N 36°52' W 076°20'3 8.5
2018-Jun-06 16:00N 36°50' W 076°18'3 6.2
2018-Jun-06 15:30N 36°47' W 076°18'1 1.7
2018-Jun-06 15:00N 36°46' W 076°18'4 4.0
2018-Jun-06 14:07N 36°43' W 076°15'0 2.7
2018-Jun-06 13:58N 36°43' W 076°14'105 4.1
2018-Jun-05 12:30N 35°01' W 076°40'4 9.0
2018-Jun-05 12:01N 34°56' W 076°39'5 8.5
2018-Jun-05 11:27N 34°52' W 076°41'3 6.0
2018-Jun-05 11:00N 34°49' W 076°41'4 8.9
2018-Jun-05 10:30N 34°45' W 076°41'2 3.9
2018-Jun-05 10:01N 34°43' W 076°41'1 1.4
2018-Jun-05 09:31N 34°43' W 076°40'0 0.0
2018-Jun-05 09:00N 34°43' W 076°40'0 0.0
2018-Jun-05 08:30N 34°43' W 076°40'0 0.0
2018-Jun-05 08:01N 34°43' W 076°40'0 0.0
2018-Jun-05 07:31N 34°43' W 076°40'0 0.0
2018-Jun-05 07:01N 34°43' W 076°40'0 0.0
2018-Jun-05 06:31N 34°43' W 076°40'0 0.0
2018-Jun-05 06:00N 34°43' W 076°40'0 0.0
2018-Jun-05 05:31N 34°43' W 076°40'0 0.0
2018-Jun-05 05:00N 34°43' W 076°40'0 0.0
2018-Jun-05 04:31N 34°43' W 076°40'0 0.0
2018-Jun-05 04:01N 34°43' W 076°40'0 0.0
2018-Jun-05 03:30N 34°43' W 076°40'0 0.0
2018-Jun-05 03:00N 34°43' W 076°40'0 0.0
2018-Jun-05 02:31N 34°43' W 076°40'0 0.0
2018-Jun-05 02:01N 34°43' W 076°40'0 0.0
2018-Jun-05 01:30N 34°43' W 076°40'0 0.0
2018-Jun-05 01:01N 34°43' W 076°40'0 0.0
2018-Jun-05 00:30N 34°43' W 076°40'0 0.0
2018-Jun-05 00:01N 34°43' W 076°40'0 0.0
2018-Jun-04 23:31N 34°43' W 076°40'0 0.0
2018-Jun-04 23:01N 34°43' W 076°40'0 0.0
2018-Jun-04 22:29N 34°43' W 076°40'0 0.0
2018-Jun-04 21:59N 34°43' W 076°40'0 0.0
2018-Jun-04 21:31N 34°43' W 076°40'0 0.0
2018-Jun-04 21:01N 34°43' W 076°40'0 0.0
2018-Jun-04 20:31N 34°43' W 076°40'1 2.0
2018-Jun-04 20:01N 34°42' W 076°41'4 9.0
2018-Jun-04 19:31N 34°38' W 076°43'52413.1
2018-Jun-03 03:23N 26°19' W 079°47'615.4
2018-Jun-03 03:00N 26°13' W 079°48'815.5
2018-Jun-03 02:30N 26°05' W 079°50'815.6
2018-Jun-03 02:00N 25°57' W 079°51'815.8
2018-Jun-03 01:30N 25°50' W 079°52'815.7
2018-Jun-03 01:00N 25°42' W 079°53'  

Dump ship's entire track history